Time;durP1;ratioP1;P1;durP2;ratioP2;P2;SDS_P1;SDS_P2;PMS_P1;PMS_P2;Temp;Humidity;BMP_temperature;BMP_pressure;BME280_temperature;BME280_humidity;BME280_pressure;Samples;Min_cycle;Max_cycle;Signal;HPM_P1;HPM_P2
2022/02/07 00:01:28;;;;;;;2.80;1.70;;;;;;;5.19;98.98;97073.38;105287;1271;76133;-75
2022/02/07 00:03:59;;;;;;;5.90;2.70;;;;;;;5.18;99.12;97066.02;105284;1268;69333;-75
2022/02/07 00:06:25;;;;;;;;;;;;;;;5.18;99.26;97059.52;105021;1272;73229;-75
2022/02/07 00:08:52;;;;;;;3.30;1.90;;;;;;;5.16;99.52;97055.30;105247;1268;61246;-75
2022/02/07 00:11:21;;;;;;;3.90;2.30;;;;;;;5.12;99.86;97055.36;105269;1271;61196;-75
2022/02/07 00:13:47;;;;;;;4.00;1.80;;;;;;;5.08;100.00;97057.83;105283;1268;76632;-75
2022/02/07 00:16:14;;;;;;;2.60;1.80;;;;;;;5.03;100.00;97055.85;105254;1269;61196;-75
2022/02/07 00:18:41;;;;;;;4.60;3.00;;;;;;;4.98;100.00;97059.41;105234;1271;61125;-74
2022/02/07 00:21:07;;;;;;;5.00;2.50;;;;;;;4.94;100.00;97055.34;105223;1271;61396;-74
2022/02/07 00:23:34;;;;;;;4.20;2.40;;;;;;;4.90;100.00;97051.77;105097;1271;61361;-75
2022/02/07 00:26:01;;;;;;;4.40;1.90;;;;;;;4.85;100.00;97046.86;105011;1271;75136;-74
2022/02/07 00:28:27;;;;;;;4.30;2.50;;;;;;;4.80;100.00;97047.08;105235;1269;61171;-76
2022/02/07 00:30:54;;;;;;;3.90;2.40;;;;;;;4.74;100.00;97049.06;105252;1270;61340;-75
2022/02/07 00:33:20;;;;;;;3.60;2.20;;;;;;;4.71;100.00;97049.15;105255;1271;61379;-77
2022/02/07 00:35:47;;;;;;;4.50;2.30;;;;;;;4.67;100.00;97046.10;105285;1270;61188;-76
2022/02/07 00:38:18;;;;;;;6.10;2.60;;;;;;;4.62;100.00;97042.40;105234;1270;75287;-76
2022/02/07 00:43:39;;;;;;;4.30;2.90;;;;;;;4.56;100.00;97049.38;105051;1271;74560;-75
2022/02/07 00:46:11;;;;;;;4.60;2.50;;;;;;;4.53;100.00;97051.91;105268;1271;61361;-75
2022/02/07 00:48:39;;;;;;;4.80;2.00;;;;;;;4.50;100.00;97054.02;105261;1268;61281;-75
2022/02/07 00:51:07;;;;;;;5.60;2.60;;;;;;;4.48;100.00;97056.85;105433;1268;76156;-74
2022/02/07 00:53:33;;;;;;;4.90;2.80;;;;;;;4.44;100.00;97060.44;105265;1269;68213;-75
2022/02/07 00:56:01;;;;;;;3.20;2.30;;;;;;;4.41;100.00;97063.98;105271;1269;72304;-75
2022/02/07 00:58:28;;;;;;;5.20;2.60;;;;;;;4.38;100.00;97064.77;105396;1268;61261;-75
2022/02/07 01:00:55;;;;;;;4.40;2.60;;;;;;;4.36;100.00;97065.98;105243;1271;61413;-74
2022/02/07 01:03:22;;;;;;;4.60;3.00;;;;;;;4.34;100.00;97068.58;105293;1268;75321;-75
2022/02/07 01:05:49;;;;;;;4.00;3.20;;;;;;;4.31;100.00;97064.73;105292;1268;67284;-76
2022/02/07 01:08:20;;;;;;;4.60;3.40;;;;;;;4.29;100.00;97064.37;105273;1268;73409;-76
2022/02/07 01:13:33;;;;;;;4.50;2.70;;;;;;;4.26;100.00;97067.20;105162;1270;174042;-75
2022/02/07 01:16:44;;;;;;;3.00;2.20;;;;;;;4.25;100.00;97063.98;105018;1271;75357;-76
2022/02/07 01:46:47;;;;;;;2.40;2.20;;;;;;;3.96;100.00;96994.15;105038;1271;70283;-74
2022/02/07 01:50:07;;;;;;;3.10;2.50;;;;;;;3.91;100.00;96985.89;105308;1269;73584;-75
2022/02/07 01:57:23;;;;;;;4.10;2.50;;;;;;;3.85;100.00;96978.94;104893;1274;75306;-75
2022/02/07 01:59:50;;;;;;;2.90;2.60;;;;;;;3.84;100.00;96974.27;104873;1275;69925;-75
2022/02/07 02:02:16;;;;;;;4.50;3.40;;;;;;;3.83;100.00;96978.42;104819;1274;72182;-75
2022/02/07 02:04:43;;;;;;;4.30;2.80;;;;;;;3.82;100.00;96987.25;104870;1274;61399;-76
2022/02/07 02:07:10;;;;;;;4.10;3.20;;;;;;;3.80;100.00;96983.05;104869;1274;61416;-76
2022/02/07 02:09:37;;;;;;;3.40;2.70;;;;;;;3.77;100.00;96978.49;104893;1274;73629;-76
2022/02/07 02:12:05;;;;;;;4.30;3.20;;;;;;;3.75;100.00;96986.35;104896;1274;70206;-75
2022/02/07 02:46:51;;;;;;;6.20;5.70;;;;;;;3.77;100.00;96970.08;104856;1274;61768;-74
2022/02/07 02:49:17;;;;;;;6.40;5.30;;;;;;;3.78;100.00;96960.73;104894;1274;75429;-75
2022/02/07 02:51:44;;;;;;;5.40;5.00;;;;;;;3.80;100.00;96956.73;104925;1274;61301;-76
2022/02/07 02:54:10;;;;;;;4.90;4.40;;;;;;;3.81;100.00;96958.04;104952;1271;61282;-75
2022/02/07 02:56:37;;;;;;;6.20;4.40;;;;;;;3.82;100.00;96958.14;105276;1271;61173;-76
2022/02/07 02:59:04;;;;;;;5.50;4.20;;;;;;;3.83;100.00;96966.67;105212;1271;61377;-76
2022/02/07 03:01:32;;;;;;;6.30;3.80;;;;;;;3.83;100.00;96978.39;105288;1271;76356;-72
2022/02/07 03:03:58;;;;;;;4.90;4.30;;;;;;;3.83;100.00;96987.34;105299;1269;69577;-75
2022/02/07 03:06:25;;;;;;;7.40;5.10;;;;;;;3.84;100.00;96991.14;105319;1270;73913;-76
2022/02/07 03:08:52;;;;;;;10.40;6.90;;;;;;;3.86;100.00;96992.77;105044;1271;61489;-73
2022/02/07 03:11:22;;;;;;;9.50;6.10;;;;;;;3.88;100.00;96987.70;105316;1271;61264;-76
2022/02/07 03:13:52;;;;;;;8.60;5.90;;;;;;;3.90;100.00;96985.84;105057;1271;75127;-74
2022/02/07 03:16:38;;;;;;;8.30;5.80;;;;;;;3.91;100.00;96980.48;105291;1271;69077;-76
2022/02/07 03:19:07;;;;;;;5.90;3.70;;;;;;;3.93;100.00;96965.05;105266;1268;73784;-75
2022/02/07 03:21:34;;;;;;;6.10;3.40;;;;;;;3.93;100.00;96954.80;105343;1268;61276;-76
2022/02/07 03:24:01;;;;;;;5.10;4.10;;;;;;;3.94;100.00;96940.70;105245;1268;62138;-76
2022/02/07 03:26:30;;;;;;;6.80;4.40;;;;;;;3.95;100.00;96935.73;105272;1268;75082;-75
2022/02/07 03:28:56;;;;;;;7.60;4.00;;;;;;;3.96;100.00;96941.95;105340;1268;69200;-74
2022/02/07 03:31:23;;;;;;;5.30;3.60;;;;;;;3.98;100.00;96959.73;105286;1268;61267;-77
2022/02/07 03:33:49;;;;;;;4.90;2.90;;;;;;;4.00;100.00;96957.84;105308;1268;61390;-75
2022/02/07 03:36:16;;;;;;;3.60;2.60;;;;;;;4.03;100.00;96954.83;105320;1268;60667;-75
2022/02/07 03:38:45;;;;;;;2.20;1.80;;;;;;;4.05;100.00;96944.17;105342;1268;76482;-76
2022/02/07 03:41:15;;;;;;;2.50;1.70;;;;;;;4.06;100.00;96941.57;105347;1268;69669;-75
2022/02/07 03:43:42;;;;;;;2.70;1.70;;;;;;;4.08;100.00;96938.08;105296;1268;72391;-74
2022/02/07 03:46:08;;;;;;;3.00;2.00;;;;;;;4.10;100.00;96941.85;105341;1268;61170;-76
2022/02/07 03:48:35;;;;;;;2.40;1.90;;;;;;;4.09;100.00;96942.59;105359;1268;61254;-76
2022/02/07 03:51:01;;;;;;;3.00;1.30;;;;;;;4.08;100.00;96946.55;105593;1268;76288;-73
2022/02/07 03:53:28;;;;;;;2.50;1.60;;;;;;;4.08;100.00;96953.20;105726;1268;61192;-74
2022/02/07 03:55:54;;;;;;;3.90;3.10;;;;;;;4.08;100.00;96952.85;105975;1269;74360;-76
2022/02/07 03:58:21;;;;;;;1.70;1.60;;;;;;;4.09;100.00;96957.23;106051;1268;61319;-76
2022/02/07 04:00:50;;;;;;;2.50;1.40;;;;;;;4.09;100.00;96961.73;106297;1268;61676;-76
2022/02/07 04:03:21;;;;;;;2.30;1.40;;;;;;;4.11;100.00;96972.48;108161;1267;75637;-75
2022/02/07 04:06:13;;;;;;;1.60;1.50;;;;;;;4.14;100.00;96977.55;108087;1268;67289;-75
2022/02/07 04:08:42;;;;;;;1.60;1.20;;;;;;;4.17;100.00;96967.84;108331;1268;74300;-76
2022/02/07 04:13:46;;;;;;;2.70;2.20;;;;;;;4.22;100.00;96974.34;105315;1268;61269;-76
2022/02/07 04:16:12;;;;;;;3.80;2.80;;;;;;;4.23;100.00;96981.66;105330;1271;76081;-75
2022/02/07 04:21:36;;;;;;;3.20;2.60;;;;;;;4.23;100.00;96984.66;105190;1271;72216;-76
2022/02/07 04:24:02;;;;;;;4.10;2.50;;;;;;;4.23;100.00;96980.77;105283;1268;61794;-76
2022/02/07 04:26:29;;;;;;;3.60;3.20;;;;;;;4.23;100.00;96980.22;105277;1269;61584;-76
2022/02/07 04:28:56;;;;;;;4.90;4.10;;;;;;;4.22;100.00;96982.94;105243;1268;61300;-76
2022/02/07 04:31:22;;;;;;;5.40;3.70;;;;;;;4.21;100.00;96989.15;105270;1269;61321;-75
2022/02/07 04:33:48;;;;;;;9.30;4.90;;;;;;;4.20;100.00;96995.93;105277;1271;61285;-75
2022/02/07 04:36:15;;;;;;;9.70;5.70;;;;;;;4.18;100.00;97001.84;105221;1269;61357;-76
2022/02/07 04:38:42;;;;;;;10.60;6.30;;;;;;;4.18;100.00;97005.36;104961;1271;61905;-75
2022/02/07 04:41:09;;;;;;;8.80;5.20;;;;;;;4.18;100.00;97005.41;105253;1269;61188;-77
2022/02/07 04:43:45;;;;;;;8.50;4.80;;;;;;;4.17;100.00;97006.54;105258;1268;69710;-75
2022/02/07 04:46:32;;;;;;;9.30;5.10;;;;;;;4.17;100.00;97015.85;105373;1268;73260;-75
2022/02/07 04:59:37;;;;;;;9.10;5.00;;;;;;;4.10;100.00;97027.96;105001;1271;74879;-74
2022/02/07 05:02:20;;;;;;;6.40;4.40;;;;;;;4.08;100.00;97028.09;105235;1268;61260;-76
2022/02/07 05:05:01;;;;;;;7.70;5.70;;;;;;;4.06;100.00;97035.08;105269;1271;61371;-74
2022/02/07 05:15:46;;;;;;;6.60;4.20;;;;;;;3.99;100.00;97049.15;105189;1271;61356;-77
2022/02/07 05:18:13;;;;;;;15.20;7.60;;;;;;;3.96;100.00;97052.98;105297;1268;61208;-74
2022/02/07 05:20:40;;;;;;;6.40;4.10;;;;;;;3.93;100.00;97060.40;104991;1274;75435;-75
2022/02/07 05:23:06;;;;;;;8.00;4.40;;;;;;;3.92;100.00;97069.63;104942;1274;69368;-76
2022/02/07 05:25:33;;;;;;;6.60;4.10;;;;;;;3.91;100.00;97073.20;105053;1274;61384;-75
2022/02/07 05:27:59;;;;;;;3.30;3.00;;;;;;;3.90;100.00;97077.66;105052;1274;61330;-77
2022/02/07 05:30:26;;;;;;;5.00;3.40;;;;;;;3.90;100.00;97083.30;105117;1274;61756;-74
2022/02/07 05:32:52;;;;;;;4.40;2.90;;;;;;;3.91;100.00;97082.92;105199;1274;74500;-73
2022/02/07 05:35:19;;;;;;;3.40;2.40;;;;;;;3.91;100.00;97090.45;105053;1274;68368;-76
2022/02/07 05:37:46;;;;;;;5.00;2.80;;;;;;;3.91;100.00;97084.10;104609;1274;61225;-73
2022/02/07 05:40:24;;;;;;;3.30;2.80;;;;;;;3.90;100.00;97092.60;104832;1274;61480;-75
2022/02/07 05:42:51;;;;;;;3.80;3.20;;;;;;;3.89;100.00;97095.17;104949;1274;61211;-75
2022/02/07 05:45:17;;;;;;;4.10;3.00;;;;;;;3.89;100.00;97098.33;105029;1274;76514;-75
2022/02/07 05:47:44;;;;;;;5.90;4.00;;;;;;;3.87;100.00;97108.63;104919;1273;61673;-76
2022/02/07 05:50:11;;;;;;;6.10;5.00;;;;;;;3.86;100.00;97120.48;104946;1274;73399;-76
2022/02/07 05:52:37;;;;;;;4.80;3.80;;;;;;;3.83;100.00;97126.69;104920;1269;61266;-75
2022/02/07 05:55:05;;;;;;;4.30;3.50;;;;;;;3.80;100.00;97141.27;105242;1268;61265;-75
2022/02/07 05:57:31;;;;;;;6.10;4.10;;;;;;;3.80;100.00;97154.27;105207;1269;76098;-75
2022/02/07 05:59:58;;;;;;;8.50;5.20;;;;;;;3.80;100.00;97177.52;105251;1268;70352;-74
2022/02/07 06:02:25;;;;;;;4.20;1.80;;;;;;;3.75;100.00;97230.30;105233;1269;73324;-73
2022/02/07 06:04:51;;;;;;;3.60;1.70;;;;;;;3.23;100.00;97244.14;105210;1271;61258;-72
2022/02/07 06:07:18;;;;;;;2.90;1.80;;;;;;;2.54;100.00;97246.45;104999;1271;61438;-70
2022/02/07 06:09:44;;;;;;;3.30;2.20;;;;;;;2.08;100.00;97254.52;105246;1269;61251;-69
2022/02/07 06:12:11;;;;;;;3.80;1.90;;;;;;;1.82;100.00;97259.60;105104;1268;61377;-72
2022/02/07 06:14:37;;;;;;;2.00;1.80;;;;;;;1.68;100.00;97264.08;105253;1269;61161;-71
2022/02/07 06:17:04;;;;;;;3.90;2.90;;;;;;;1.59;100.00;97270.74;105251;1268;61457;-71
2022/02/07 06:19:31;;;;;;;4.30;2.50;;;;;;;1.54;100.00;97285.56;105311;1271;61257;-72
2022/02/07 06:21:58;;;;;;;4.40;2.60;;;;;;;1.52;100.00;97306.00;105289;1271;76519;-72
2022/02/07 06:24:24;;;;;;;8.40;5.40;;;;;;;1.48;100.00;97310.93;105237;1269;70682;-71
2022/02/07 06:26:51;;;;;;;3.70;3.40;;;;;;;1.43;100.00;97329.23;105272;1271;73342;-71
2022/02/07 06:29:17;;;;;;;5.30;4.30;;;;;;;1.42;100.00;97336.66;105245;1271;61239;-73
2022/02/07 06:31:44;;;;;;;5.00;4.50;;;;;;;1.40;100.00;97340.29;105263;1271;61338;-73
2022/02/07 06:34:10;;;;;;;4.50;4.10;;;;;;;1.40;100.00;97346.08;105248;1271;61259;-72
2022/02/07 06:36:37;;;;;;;6.20;5.50;;;;;;;1.39;100.00;97355.35;105287;1271;69104;-73
2022/02/07 06:39:04;;;;;;;9.50;6.20;;;;;;;1.37;100.00;97363.01;105247;1271;61163;-73
2022/02/07 06:41:30;;;;;;;8.10;7.20;;;;;;;1.35;100.00;97373.66;105292;1271;61313;-74
2022/02/07 06:43:57;;;;;;;4.90;4.40;;;;;;;1.35;100.00;97385.19;105282;1271;60627;-73
2022/02/07 06:46:23;;;;;;;5.10;3.90;;;;;;;1.34;100.00;97392.53;104544;1268;1003806;-74
2022/02/07 06:48:50;;;;;;;5.90;3.90;;;;;;;1.33;100.00;97396.51;105256;1268;61282;-72
2022/02/07 06:51:17;;;;;;;5.50;4.90;;;;;;;1.29;100.00;97402.08;104963;1271;61371;-72
2022/02/07 06:53:44;;;;;;;4.60;4.20;;;;;;;1.28;100.00;97405.85;104525;1268;1003162;-73
2022/02/07 06:56:10;;;;;;;4.90;4.40;;;;;;;1.26;100.00;97406.85;105286;1268;61253;-73
2022/02/07 06:58:37;;;;;;;8.10;5.80;;;;;;;1.24;100.00;97405.36;105044;1268;74905;-72
2022/02/07 07:01:05;;;;;;;6.40;5.80;;;;;;;1.25;100.00;97406.69;105163;1271;68167;-72
2022/02/07 07:03:34;;;;;;;7.50;6.20;;;;;;;1.28;100.00;97410.20;104883;1268;73236;-72
2022/02/07 07:06:01;;;;;;;6.10;5.10;;;;;;;1.32;100.00;97419.64;105077;1268;61400;-71
2022/02/07 07:08:28;;;;;;;5.60;4.90;;;;;;;1.37;100.00;97427.77;104985;1269;61160;-71
2022/02/07 07:10:57;;;;;;;5.60;5.00;;;;;;;1.41;100.00;97435.60;104917;1268;75309;-73
2022/02/07 07:13:36;;;;;;;7.10;6.00;;;;;;;1.45;100.00;97447.08;104910;1268;68173;-73
2022/02/07 07:16:14;;;;;;;7.00;5.90;;;;;;;1.49;100.00;97454.91;104900;1268;73627;-72
2022/02/07 07:18:41;;;;;;;7.50;5.60;;;;;;;1.52;100.00;97456.65;104883;1269;61300;-73
2022/02/07 07:21:07;;;;;;;9.50;6.50;;;;;;;1.55;100.00;97461.06;104901;1268;61227;-71
2022/02/07 07:23:36;;;;;;;8.20;6.60;;;;;;;1.58;100.00;97475.27;104177;1268;1002534;-72
2022/02/07 07:26:03;;;;;;;9.20;8.30;;;;;;;1.62;100.00;97476.25;104900;1268;69150;-72
2022/02/07 07:28:30;;;;;;;11.30;7.10;;;;;;;1.70;100.00;97471.08;104645;1272;74284;-73
2022/02/07 07:30:59;;;;;;;12.30;8.30;;;;;;;1.77;100.00;97477.70;104892;1268;61403;-72
2022/02/07 07:33:28;;;;;;;12.10;8.90;;;;;;;1.83;100.00;97484.75;104888;1268;62193;-73
2022/02/07 07:35:56;;;;;;;13.70;9.60;;;;;;;1.87;100.00;97493.76;104964;1269;76714;-70
2022/02/07 07:38:24;;;;;;;14.80;10.60;;;;;;;1.91;100.00;97500.17;105261;1269;68395;-73
2022/02/07 07:40:51;;;;;;;13.60;10.80;;;;;;;1.95;100.00;97502.23;105386;1268;74259;-73
2022/02/07 07:43:18;;;;;;;11.00;8.30;;;;;;;1.99;100.00;97506.04;105253;1269;61384;-74
2022/02/07 07:45:48;;;;;;;11.00;8.00;;;;;;;2.04;100.00;97519.80;105275;1268;62028;-74
2022/02/07 07:48:23;;;;;;;9.90;5.90;;;;;;;2.09;100.00;97526.85;105257;1268;75154;-73
2022/02/07 07:51:13;;;;;;;11.40;7.50;;;;;;;2.15;100.00;97533.86;104977;1268;70461;-73
2022/02/07 08:04:07;;;;;;;8.60;6.10;;;;;;;2.39;100.00;97552.82;105023;1271;68716;-75
2022/02/07 08:06:54;;;;;;;7.90;6.60;;;;;;;2.45;100.00;97554.98;105242;1269;73376;-74
2022/02/07 08:09:59;;;;;;;6.50;3.90;;;;;;;2.52;100.00;97560.73;105307;1268;61342;-73
2022/02/07 08:12:10;;;;;;;6.20;3.60;;;;;;;2.57;100.00;97558.66;104909;1271;61994;-73
2022/02/07 08:14:38;;;;;;;5.70;3.60;;;;;;;2.62;100.00;97565.00;104994;1268;75168;-75
2022/02/07 08:17:05;;;;;;;6.80;3.70;;;;;;;2.65;100.00;97569.92;105223;1268;69151;-73
2022/02/07 08:19:33;;;;;;;6.20;3.40;;;;;;;2.69;100.00;97569.20;105291;1268;74167;-73
2022/02/07 08:22:01;;;;;;;6.50;3.70;;;;;;;2.72;100.00;97576.37;104877;1268;61438;-73
2022/02/07 08:24:29;;;;;;;6.70;3.10;;;;;;;2.75;100.00;97584.59;105305;1268;61864;-74
2022/02/07 08:26:57;;;;;;;4.40;2.90;;;;;;;2.82;100.00;97595.10;105376;1268;75272;-73
2022/02/07 08:29:24;;;;;;;3.00;2.10;;;;;;;2.90;100.00;97599.73;105270;1268;69801;-74
2022/02/07 08:31:50;;;;;;;3.20;2.10;;;;;;;2.99;100.00;97612.52;105323;1268;73241;-72
2022/02/07 08:34:17;;;;;;;2.80;2.00;;;;;;;3.08;100.00;97616.55;105379;1268;61285;-74
2022/02/07 08:36:43;;;;;;;6.00;3.60;;;;;;;3.15;100.00;97616.69;105377;1268;61257;-77
2022/02/07 08:39:10;;;;;;;5.10;2.40;;;;;;;3.17;100.00;97619.73;105253;1268;76390;-75
2022/02/07 08:41:37;;;;;;;2.90;1.90;;;;;;;3.19;100.00;97621.88;105212;1268;69392;-73
2022/02/07 08:44:03;;;;;;;2.30;1.90;;;;;;;3.17;100.00;97620.08;105271;1269;61387;-74
2022/02/07 08:46:30;;;;;;;3.00;2.10;;;;;;;3.16;100.00;97619.23;105265;1271;61265;-75
2022/02/07 08:48:58;;;;;;;3.20;2.00;;;;;;;3.18;100.00;97615.95;105303;1271;61374;-72
2022/02/07 08:51:25;;;;;;;4.80;2.20;;;;;;;3.22;100.00;97623.80;105295;1268;75163;-75
2022/02/07 08:53:52;;;;;;;4.60;2.40;;;;;;;3.28;100.00;97616.41;105291;1268;70078;-76
2022/02/07 08:56:30;;;;;;;4.00;2.40;;;;;;;3.39;100.00;97622.64;105104;1272;71550;-73
2022/02/07 08:58:56;;;;;;;3.90;2.40;;;;;;;3.49;100.00;97628.13;105248;1271;61304;-76
2022/02/07 09:01:28;;;;;;;2.80;2.10;;;;;;;3.59;100.00;97633.89;105280;1271;61254;-75
2022/02/07 09:06:56;;;;;;;5.90;2.00;;;;;;;3.75;98.76;97651.33;105283;1271;69640;-76
2022/02/07 09:09:23;;;;;;;3.30;1.80;;;;;;;3.72;98.61;97660.63;104502;1271;1002533;-73
2022/02/07 09:11:51;;;;;;;4.50;2.00;;;;;;;3.78;98.90;97656.45;105294;1271;61330;-74
2022/02/07 09:14:22;;;;;;;4.40;2.70;;;;;;;3.93;98.81;97667.66;105304;1271;61239;-72
2022/02/07 09:16:51;;;;;;;4.30;2.70;;;;;;;3.93;98.38;97671.33;105259;1271;75153;-73
2022/02/07 09:19:20;;;;;;;3.30;1.90;;;;;;;3.86;99.11;97679.14;105415;1269;69145;-74
2022/02/07 09:21:49;;;;;;;2.80;1.90;;;;;;;3.72;98.17;97691.04;105026;1272;71755;-75
2022/02/07 09:24:16;;;;;;;3.50;1.60;;;;;;;3.55;98.29;97709.46;105357;1271;61251;-75
2022/02/07 09:26:43;;;;;;;3.00;1.20;;;;;;;3.28;99.10;97718.23;105200;1271;61220;-75
2022/02/07 09:29:10;;;;;;;3.00;1.60;;;;;;;3.12;99.71;97726.73;105337;1271;75148;-73
2022/02/07 09:31:37;;;;;;;2.50;1.40;;;;;;;3.06;99.92;97724.77;105336;1271;68869;-73
2022/02/07 09:34:04;;;;;;;3.70;1.30;;;;;;;3.00;99.70;97728.44;105352;1271;74085;-75
2022/02/07 09:36:31;;;;;;;5.20;1.70;;;;;;;2.97;99.96;97736.49;105416;1270;61253;-74
2022/02/07 09:38:58;;;;;;;2.70;1.40;;;;;;;3.03;99.73;97746.67;105481;1271;61746;-75
2022/02/07 09:41:30;;;;;;;1.50;1.30;;;;;;;3.07;99.45;97743.29;105196;1272;74724;-73
2022/02/07 09:43:58;;;;;;;2.50;1.70;;;;;;;3.02;99.81;97758.48;105179;1272;68118;-73
2022/02/07 09:46:43;;;;;;;4.40;1.70;;;;;;;3.01;100.00;97764.84;105767;1271;74392;-73
2022/02/07 09:49:12;;;;;;;3.20;1.80;;;;;;;3.00;100.00;97772.09;105502;1271;61265;-73
2022/02/07 09:51:43;;;;;;;7.40;4.00;;;;;;;2.98;100.00;97774.67;105871;1271;61256;-73
2022/02/07 09:54:14;;;;;;;4.20;2.30;;;;;;;3.08;100.00;97768.15;106047;1271;73296;-73
2022/02/07 09:56:46;;;;;;;4.20;2.40;;;;;;;3.32;100.00;97774.36;106194;1271;69150;-73
2022/02/07 09:59:15;;;;;;;5.50;2.60;;;;;;;3.42;100.00;97785.02;106849;1271;72780;-74
2022/02/07 10:01:48;;;;;;;4.80;2.90;;;;;;;3.53;100.00;97781.95;108141;1271;63104;-73
2022/02/07 10:04:25;;;;;;;5.10;3.00;;;;;;;3.66;100.00;97785.38;108058;1271;60695;-73
2022/02/07 10:07:13;;;;;;;3.80;2.60;;;;;;;3.64;100.00;97791.66;108229;1270;75197;-73
2022/02/07 10:10:00;;;;;;;3.70;2.70;;;;;;;3.61;100.00;97791.32;106508;1271;69157;-74
2022/02/07 10:12:39;;;;;;;2.70;1.90;;;;;;;3.63;100.00;97792.77;105033;1271;73246;-74
2022/02/07 10:15:20;;;;;;;6.50;2.60;;;;;;;3.56;100.00;97796.65;105314;1271;61256;-73
2022/02/07 10:48:34;;;;;;;5.70;2.60;;;;;;;2.63;100.00;97869.00;105254;1271;74625;-73
2022/02/07 10:51:16;;;;;;;3.40;2.20;;;;;;;2.62;100.00;97865.76;105091;1271;69399;-73
2022/02/07 10:53:55;;;;;;;4.60;2.60;;;;;;;2.68;100.00;97872.27;105295;1270;72181;-73
2022/02/07 10:56:40;;;;;;;4.90;3.00;;;;;;;2.72;100.00;97873.98;105269;1271;61253;-74
2022/02/07 10:59:10;;;;;;;3.70;2.70;;;;;;;2.68;100.00;97881.23;105237;1271;61234;-73
2022/02/07 11:04:12;;;;;;;3.60;2.30;;;;;;;2.80;99.88;97892.31;105297;1271;69142;-76
2022/02/07 11:06:43;;;;;;;3.90;2.60;;;;;;;2.90;99.82;97897.42;105243;1271;74211;-75
2022/02/07 11:09:24;;;;;;;5.40;2.80;;;;;;;2.99;99.34;97898.48;105290;1271;61281;-75
2022/02/07 11:14:47;;;;;;;4.40;2.70;;;;;;;3.08;98.65;97904.34;105246;1271;75460;-76
2022/02/07 11:20:24;;;;;;;2.90;1.90;;;;;;;3.27;98.44;97904.84;105256;1271;74202;-75
2022/02/07 11:26:35;;;;;;;2.50;2.00;;;;;;;3.29;97.04;97912.29;104870;1274;62048;-73
2022/02/07 11:29:02;;;;;;;3.70;2.10;;;;;;;3.28;96.46;97915.86;104910;1274;74312;-75
2022/02/07 11:31:34;;;;;;;2.70;2.00;;;;;;;3.27;95.89;97915.19;104903;1275;69251;-74
2022/02/07 11:34:11;;;;;;;5.00;2.60;;;;;;;3.25;96.39;97925.13;104962;1274;74582;-74
2022/02/07 11:36:39;;;;;;;4.50;3.20;;;;;;;3.25;95.95;97925.71;105016;1275;61275;-74
2022/02/07 11:39:16;;;;;;;4.00;2.50;;;;;;;3.27;95.32;97937.70;104900;1274;61540;-75
2022/02/07 11:42:04;;;;;;;3.80;2.60;;;;;;;3.31;95.31;97942.05;104922;1274;75128;-74
2022/02/07 11:44:43;;;;;;;4.40;2.70;;;;;;;3.39;95.29;97947.08;104856;1275;69743;-76
2022/02/07 11:47:16;;;;;;;5.40;2.40;;;;;;;3.37;95.89;97957.33;104869;1277;73388;-75
2022/02/07 11:49:50;;;;;;;3.90;2.10;;;;;;;3.37;95.49;97954.90;104938;1274;61278;-76
2022/02/07 11:52:32;;;;;;;2.70;1.90;;;;;;;3.32;94.61;97961.13;105127;1275;61227;-74
2022/02/07 11:55:08;;;;;;;4.00;1.50;;;;;;;3.31;94.62;97970.83;104878;1275;76670;-73
2022/02/07 11:57:39;;;;;;;3.70;2.00;;;;;;;3.29;94.28;97980.95;105265;1271;69867;-75
2022/02/07 12:00:16;;;;;;;4.60;2.70;;;;;;;3.24;95.30;97979.61;104565;1273;1002964;-75
2022/02/07 12:02:48;;;;;;;3.90;2.50;;;;;;;3.27;95.40;97979.63;105277;1271;61159;-73
2022/02/07 12:05:23;;;;;;;3.00;2.10;;;;;;;3.34;94.70;97985.27;105177;1272;62128;-75
2022/02/07 12:07:59;;;;;;;3.70;2.20;;;;;;;3.38;94.10;97987.29;105329;1268;75143;-74
2022/02/07 12:10:28;;;;;;;2.20;1.60;;;;;;;3.48;93.84;97983.27;105246;1271;70524;-75
2022/02/07 12:12:58;;;;;;;4.10;2.20;;;;;;;3.63;92.93;97997.39;105392;1268;72107;-78
2022/02/07 12:15:37;;;;;;;4.80;2.30;;;;;;;3.75;92.45;98005.64;105388;1271;61403;-79
2022/02/07 12:18:13;;;;;;;3.60;1.70;;;;;;;3.86;93.14;98008.39;105275;1271;61265;-80
2022/02/07 12:20:43;;;;;;;3.10;1.50;;;;;;;3.88;92.03;98010.91;105257;1271;75377;-80
2022/02/07 12:23:13;;;;;;;3.20;1.70;;;;;;;3.83;92.63;98013.83;105324;1271;69305;-79
2022/02/07 12:25:48;;;;;;;2.70;1.80;;;;;;;3.86;92.75;98013.30;105371;1270;73660;-78
2022/02/07 12:28:28;;;;;;;2.90;1.30;;;;;;;4.05;92.63;98015.77;105268;1272;61268;-78
2022/02/07 12:33:28;;;;;;;2.50;1.60;;;;;;;4.53;91.73;98014.27;105376;1271;74689;-78
2022/02/07 12:35:58;;;;;;;2.40;1.60;;;;;;;4.52;89.54;98018.02;105331;1271;69085;-79
2022/02/07 12:38:25;;;;;;;3.50;1.40;;;;;;;4.36;89.30;98042.50;105259;1271;74319;-78
2022/02/07 12:40:53;;;;;;;3.00;1.50;;;;;;;4.22;89.35;98042.42;105492;1269;61278;-78
2022/02/07 12:43:21;;;;;;;2.70;1.30;;;;;;;4.22;89.37;98046.66;105427;1270;61503;-75
2022/02/07 12:45:49;;;;;;;4.60;2.00;;;;;;;4.29;88.82;98050.30;104965;1273;76208;-74
2022/02/07 12:48:28;;;;;;;3.80;1.60;;;;;;;4.47;89.46;98050.66;105528;1269;70323;-75
2022/02/07 12:50:55;;;;;;;3.60;2.00;;;;;;;4.72;88.73;98048.69;105261;1271;73506;-76
2022/02/07 12:53:27;;;;;;;2.50;1.50;;;;;;;4.99;88.00;98052.04;105286;1268;61256;-73
2022/02/07 12:55:58;;;;;;;3.90;1.90;;;;;;;5.19;86.56;98065.09;105481;1271;62004;-74
2022/02/07 12:58:33;;;;;;;3.50;2.30;;;;;;;5.15;85.96;98069.42;105427;1268;76149;-77
2022/02/07 13:01:16;;;;;;;5.30;2.10;;;;;;;4.99;86.25;98076.17;105282;1271;69230;-74
2022/02/07 13:04:04;;;;;;;4.30;2.70;;;;;;;4.69;89.14;98086.67;105110;1271;72732;-74
2022/02/07 13:06:33;;;;;;;6.00;3.10;;;;;;;4.24;91.34;98103.81;105332;1271;61259;-76
2022/02/07 13:09:04;;;;;;;9.10;4.20;;;;;;;3.97;92.03;98110.04;105438;1271;62094;-80
2022/02/07 13:11:34;;;;;;;6.80;4.60;;;;;;;3.77;93.01;98122.23;105317;1271;74258;-79
2022/02/07 13:14:03;;;;;;;12.70;6.60;;;;;;;3.64;93.45;98124.29;105023;1271;331623;-79
2022/02/07 13:16:31;;;;;;;;;;;;;;;3.62;93.93;98126.53;105324;1271;73245;-79
2022/02/07 13:19:17;;;;;;;6.40;4.70;;;;;;;3.66;94.21;98128.77;105260;1271;61313;-79
2022/02/07 13:21:47;;;;;;;6.00;3.70;;;;;;;3.73;93.47;98131.88;105454;1270;62269;-79
2022/02/07 13:24:17;;;;;;;5.00;3.40;;;;;;;3.78;90.49;98132.19;105176;1274;76387;-81
2022/02/07 13:26:50;;;;;;;8.10;4.80;;;;;;;3.82;90.20;98138.28;105515;1271;69258;-80
2022/02/07 13:29:22;;;;;;;20.80;9.60;;;;;;;3.84;88.99;98137.64;105457;1271;74155;-79
2022/02/07 13:32:00;;;;;;;7.70;3.90;;;;;;;3.88;87.65;98144.09;105352;1271;61266;-81
2022/02/07 13:34:29;;;;;;;9.20;4.60;;;;;;;3.87;86.76;98145.56;105309;1271;61344;-80
2022/02/07 13:37:15;;;;;;;6.50;2.80;;;;;;;3.83;85.91;98154.23;105374;1271;74032;-80
2022/02/07 13:40:12;;;;;;;8.70;3.90;;;;;;;3.76;85.67;98158.46;105416;1271;68951;-81
2022/02/07 13:42:42;;;;;;;9.10;4.10;;;;;;;3.76;84.94;98172.50;105084;1274;73927;-81
2022/02/07 13:45:12;;;;;;;6.10;3.30;;;;;;;3.80;85.81;98175.81;105150;1274;61460;-79
2022/02/07 13:47:45;;;;;;;5.80;2.40;;;;;;;3.88;86.24;98177.48;105131;1274;61471;-81
2022/02/07 13:50:21;;;;;;;5.30;3.30;;;;;;;3.95;86.03;98178.70;105152;1271;76887;-79
2022/02/07 13:52:51;;;;;;;6.30;3.30;;;;;;;3.99;86.87;98183.27;105082;1271;69193;-80
2022/02/07 13:55:22;;;;;;;5.50;2.70;;;;;;;3.99;86.46;98184.98;104919;1275;72749;-78
2022/02/07 13:58:00;;;;;;;4.00;2.20;;;;;;;3.94;86.96;98188.09;104943;1274;61447;-80
2022/02/07 14:00:31;;;;;;;5.20;2.70;;;;;;;3.87;87.55;98198.10;105062;1273;61229;-79
2022/02/07 14:03:21;;;;;;;3.00;1.50;;;;;;;3.92;88.52;98199.27;105259;1274;76476;-79
2022/02/07 14:05:50;;;;;;;;;;;;;;;3.93;88.22;98212.73;105117;1271;69957;-79
2022/02/07 14:08:32;;;;;;;3.30;1.40;;;;;;;3.85;87.58;98212.62;105049;1274;72715;-79
2022/02/07 14:11:00;;;;;;;3.90;1.60;;;;;;;3.78;88.06;98217.39;104979;1274;61342;-79
2022/02/07 14:13:27;;;;;;;5.60;2.20;;;;;;;3.70;87.60;98228.32;105237;1271;61240;-80
2022/02/07 14:15:54;;;;;;;5.60;2.70;;;;;;;3.62;87.87;98234.39;105385;1271;75577;-78